KFWA/FWA METAR and TAF weather

Enter ICAO airport designator
Station Type Date Time Source
KFWA METAR 2020/01/26 03:54 UTC NOAA

KFWA 260354Z 24014KT 4SM -FZDZ BR SCT007 OVC010 00/M02 A2989 RMK AO2 FZDZB30 SLP130 P0000 I1001 T00001017


Station Type Date Time Source
KFWA Decoded METAR 2020/01/26 03:54 UTC NOAA

FORT WAYNE INTERNATIONAL, IN, United States (KFWA) 41-00N 85-12W 248M
Jan 25, 2020 - 10:54 PM EST / 2020.01.26 0354 UTC
Wind: from the WSW (240 degrees) at 16 MPH (14 KT):0
Visibility: 4 mile(s):0
Sky conditions: overcast
Weather: light freezing drizzle; mist
Precipitation last hour: A trace
Temperature: 32.0 F (0.0 C)
Windchill: 21 F (-6 C):1
Dew Point: 28.9 F (-1.7 C)
Relative Humidity: 88%
Pressure (altimeter): 29.89 in. Hg (1012 hPa)
ob: KFWA 260354Z 24014KT 4SM -FZDZ BR SCT007 OVC010 00/M02 A2989 RMK AO2 FZDZB30 SLP130 P0000 I1001 T00001017
cycle: 4

Station Type Date Time Source
KFWA TAF 2020/01/26 04:48 UTC NOAA

TAF
AMD KFWA 260345Z 2604/2624 25012KT 3SM -FZDZ BR OVC005
FM261500 25012KT 5SM BR OVC008
FM261800 26010KT P6SM OVC015

Example: see airport list